Flight Track Log - Related Links

Times and Time Zones

All times are in EST time to prevent confusion due to time zone crossing. See the SWA2004 flight status page for this flight to view local times or setup timezone preferences in your user account.

Time Position Orientation Groundspeed Altitude Reporting Facility
EST Latitude Longitude Course Direction KTS MPH feet Rate Location/Type
Sat 11:52:32 AM 33.6500 -84.4667 287° West 167 192 2,400  Level Atlanta TRACON
Sat 11:53:32 AM 33.6667 -84.5333 287° West 234 269 4,300 2,550 Climbing Atlanta TRACON
Sat 11:54:32 AM 33.7167 -84.5833 320° Northwest 279 321 7,500 3,333 Climbing Atlanta TRACON
Sat 11:55:38 AM 33.8000 -84.5833 360° North 275 316 11,300 2,769 Climbing Atlanta TRACON
Sat 11:56:42 AM 33.8994 -84.5869 358° North 288 331 13,500 2,419 Climbing Atlanta Center
Sat 11:57:42 AM 34.0017 -84.5925 357° North 350 403 16,300 2,750 Climbing Atlanta Center
Sat 11:58:42 AM 34.1122 -84.5908 North 371 427 19,000 2,850 Climbing Atlanta Center
Sat 11:59:42 AM 34.2250 -84.6167 349° North 407 468 22,000 2,600 Climbing Atlanta Center
Sat 12:00:42 PM 34.3250 -84.6400 349° North 414 476 24,200 2,250 Climbing Atlanta Center
Sat 12:01:42 PM 34.4397 -84.6658 349° North 419 482 26,500 1,950 Climbing Atlanta Center
Sat 12:02:42 PM 34.5583 -84.6997 347° North 426 490 28,100 1,850 Climbing Atlanta Center
Sat 12:03:42 PM 34.6750 -84.7661 335° Northwest 426 490 30,200 2,350 Climbing Atlanta Center
Sat 12:04:42 PM 34.7789 -84.8303 333° Northwest 420 483 32,800 2,250 Climbing Atlanta Center
Sat 12:05:42 PM 34.8850 -84.8844 337° Northwest 415 478 34,700 1,850 Climbing Atlanta Center
Sat 12:06:42 PM 34.9911 -84.9286 341° North 410 472 36,500 1,700 Climbing Atlanta Center
Sat 12:07:42 PM 35.1078 -84.9528 350° North 410 472 38,100 1,400 Climbing Atlanta Center
Sat 12:08:42 PM 35.2181 -84.9744 351° North 405 466 39,300 950 Climbing Atlanta Center
Sat 12:09:42 PM 35.3286 -84.9958 351° North 405 466 40,000 350 Climbing Atlanta Center
Sat 12:10:42 PM 35.4411 -85.0203 350° North 410 472 40,000  Level Atlanta Center
Sat 12:11:42 PM 35.5514 -85.0419 351° North 410 472 40,000  Level Atlanta Center
Sat 12:12:42 PM 35.6639 -85.0636 351° North 410 472 40,000  Level Atlanta Center
Sat 12:15:01 PM 35.9083 -85.1131 351° North 409 471 40,000  Level Indianapolis Center
Sat 12:16:02 PM 36.0311 -85.1372 351° North 406 467 40,000  Level Indianapolis Center
Sat 12:17:04 PM 36.1411 -85.1603 350° North 400 460 40,000  Level Indianapolis Center
Sat 12:18:05 PM 36.2517 -85.1811 351° North 399 459 40,000  Level Indianapolis Center
Sat 12:19:06 PM 36.3617 -85.2014 352° North 398 458 40,000  Level Indianapolis Center
Sat 12:20:08 PM 36.4706 -85.2236 351° North 396 456 40,000  Level Indianapolis Center
Sat 12:21:09 PM 36.5789 -85.2444 351° North 392 451 40,000  Level Indianapolis Center
Sat 12:22:11 PM 36.7097 -85.2689 351° North 396 456 40,000  Level Indianapolis Center
Sat 12:23:12 PM 36.8192 -85.2906 351° North 396 456 40,000  Level Indianapolis Center
Sat 12:24:13 PM 36.9283 -85.3117 351° North 396 456 40,000  Level Indianapolis Center
Sat 12:25:15 PM 37.0439 -85.3344 351° North 400 460 40,000  Level Indianapolis Center
Sat 12:26:16 PM 37.1544 -85.3569 351° North 400 460 40,000  Level Indianapolis Center
Sat 12:27:17 PM 37.2647 -85.3789 351° North 401 461 40,000  Level Indianapolis Center
Sat 12:28:19 PM 37.3739 -85.4003 351° North 397 457 40,000  Level Indianapolis Center
Sat 12:29:20 PM 37.4819 -85.4214 351° North 392 451 40,000  Level Indianapolis Center
Sat 12:30:21 PM 37.5897 -85.4447 350° North 391 450 40,000  Level Indianapolis Center
Sat 12:31:23 PM 37.6972 -85.4664 351° North 388 447 40,000  Level Indianapolis Center
Sat 12:32:24 PM 37.8050 -85.4886 351° North 390 449 40,000 -390 Level Indianapolis Center
Sat 12:33:26 PM 37.9289 -85.5119 352° North 398 458 39,200 -829 Descending Indianapolis Center
Sat 12:34:27 PM 38.0364 -85.5342 351° North 391 450 38,300 -934 Descending Indianapolis Center
Sat 12:35:28 PM 38.1461 -85.5556 351° North 397 457 37,300 -927 Descending Indianapolis Center
Sat 12:36:30 PM 38.2581 -85.5783 351° North 403 464 36,400 -927 Descending Indianapolis Center
Sat 12:37:31 PM 38.3706 -85.6011 351° North 406 467 35,400 -683 Descending Indianapolis Center
Sat 12:38:33 PM 38.4836 -85.6250 351° North 409 471 35,000 -195 Descending Indianapolis Center
Sat 12:39:34 PM 38.6003 -85.6486 351° North 417 480 35,000  Level Indianapolis Center
Sat 12:40:35 PM 38.7153 -85.6728 351° North 420 483 35,000 -488 Level Indianapolis Center
Sat 12:41:37 PM 38.8289 -85.6967 351° North 418 481 34,000 -1,073 Descending Indianapolis Center
Sat 12:42:38 PM 38.9653 -85.7253 351° North 415 478 32,800 -1,220 Descending Indianapolis Center
Sat 12:43:40 PM 39.0803 -85.7492 351° North 419 482 31,500 -1,366 Descending Indianapolis Center
Sat 12:44:41 PM 39.1914 -85.7719 351° North 409 471 30,000 -732 Descending Indianapolis Center
Sat 12:45:43 PM 39.3053 -85.7958 351° North 415 478 30,000 -49 Level Indianapolis Center
Sat 12:46:44 PM 39.4167 -85.8192 351° North 411 473 29,900 -683 Descending Indianapolis Center
Sat 12:47:46 PM 39.5275 -85.8436 350° North 407 468 28,600 -1,317 Descending Indianapolis Center
Sat 12:48:47 PM 39.6625 -85.8725 351° North 414 476 27,200 -1,337 Descending Indianapolis Center
Sat 12:50:50 PM 39.8925 -85.9211 351° North 425 489 24,500 -1,038 Descending Indianapolis Center
Sat 12:51:52 PM 40.0028 -85.9450 351° North 410 472 24,000 -244 Descending Indianapolis Center
Sat 12:52:53 PM 40.1131 -85.9681 351° North 405 466 24,000 -293 Level Indianapolis Center
Sat 12:53:55 PM 40.2411 -86.0067 347° North 395 455 23,400 -774 Descending Indianapolis Center
Sat 12:54:57 PM 40.3375 -86.0583 338° Northwest 379 436 22,400 -1,073 Descending Indianapolis Center
Sat 12:55:58 PM 40.4356 -86.1081 339° North 379 436 21,200 -1,512 Descending Indianapolis Center
Sat 12:57:00 PM 40.5306 -86.1597 338° Northwest 376 433 19,300 -1,610 Descending Indianapolis Center
Sat 12:58:01 PM 40.6203 -86.2064 338° Northwest 358 412 17,900 -1,610 Descending Indianapolis Center
Sat 12:59:03 PM 40.7069 -86.2514 339° North 340 391 16,000 -1,742 Descending Indianapolis Center
Sat 01:00:05 PM 40.7892 -86.2961 338° Northwest 328 377 14,300 -1,659 Descending Indianapolis Center
Sat 01:01:06 PM 40.8925 -86.3483 339° North 329 379 12,600 -1,561 Descending Indianapolis Center
Sat 01:02:08 PM 40.9744 -86.3928 338° Northwest 326 375 11,100 -878 Descending Indianapolis Center
Sat 01:03:09 PM 41.0431 -86.4547 326° Northwest 314 361 10,800 -244 Descending Indianapolis Center
Sat 01:04:11 PM 41.0997 -86.5386 312° West 309 356 10,600 -390 Descending Indianapolis Center
Sat 01:05:12 PM 41.1558 -86.6217 312° West 307 353 10,000 -293 Descending Indianapolis Center
Sat 01:06:14 PM 41.2114 -86.7053 311° West 305 351 10,000  Level Indianapolis Center
Sat 01:07:15 PM 41.2672 -86.7881 312° West 303 349 10,000 -41 Level Indianapolis Center
Sat 01:08:41 PM 41.3492 -86.9094 312° West 301 346 9,900 -122 Descending Chicago Center
Sat 01:09:43 PM 41.3967 -86.9803 312° West 265 305 9,700 -780 Descending Chicago Center
Sat 01:10:44 PM 41.4417 -87.0628 306° West 242 278 8,300 -1,122 Descending Chicago Center
Sat 01:11:46 PM 41.4764 -87.1400 301° West 242 278 7,400 -629 Descending Chicago Center
Sat 01:12:48 PM 41.5075 -87.2158 299° West 239 275 7,000 -293 Descending Chicago Center
Sat 01:13:49 PM 41.5394 -87.2914 299° West 236 272 6,800 -488 Descending Chicago Center
Sat 01:14:51 PM 41.5725 -87.3689 300° West 238 274 6,000 -823 Descending Chicago Center
Sat 01:15:53 PM 41.6050 -87.4458 299° West 239 275 5,100 -829 Descending Chicago Center
Sat 01:16:54 PM 41.6372 -87.5217 300° West 238 274 4,300 -585 Descending Chicago Center
Sat 01:17:56 PM 41.6719 -87.5933 303° West 211 243 3,900 -532 Descending Chicago Center
Sat 01:18:58 PM 41.7000 -87.6322 314° West 170 196 3,200 -683 Descending Chicago Center
Sat 01:19:59 PM 41.7239 -87.6669 313° West 147 169 2,500 -683 Descending Chicago Center
Sat 01:21:01 PM 41.7458 -87.6983 313° West 131 151 1,800 -677 Descending Chicago Center
Sat 01:22:03 PM 41.7683 -87.7294 314° West 122 140 1,100 -677 Descending Chicago Center

Login

Don't have an account? Register now (free) for customized features, flight alerts, and more!